createdAt,value
2018-04-22T00:00:02.943Z,9.55
2018-04-22T00:02:28.976Z,9.55
2018-04-22T00:04:54.907Z,9.53
2018-04-22T00:07:20.829Z,9.51
2018-04-22T00:09:46.752Z,9.48
2018-04-22T00:12:12.631Z,9.44
2018-04-22T00:14:38.598Z,9.46
2018-04-22T00:17:04.837Z,9.40
2018-04-22T00:19:30.771Z,9.38
2018-04-22T00:21:56.705Z,9.34
2018-04-22T00:24:22.621Z,9.37
2018-04-22T00:26:48.591Z,9.33
2018-04-22T00:29:14.481Z,9.31
2018-04-22T00:31:40.483Z,9.30
2018-04-22T00:34:06.364Z,9.30
2018-04-22T00:36:32.230Z,9.26
2018-04-22T00:38:58.265Z,9.26
2018-04-22T00:41:24.136Z,9.22
2018-04-22T00:43:50.084Z,9.19
2018-04-22T00:46:16.007Z,9.21
2018-04-22T00:48:41.905Z,9.14
2018-04-22T00:51:07.882Z,9.11
2018-04-22T00:53:45.984Z,9.06
2018-04-22T00:56:11.924Z,9.03
2018-04-22T00:58:37.811Z,9.01
2018-04-22T01:01:03.768Z,8.97
2018-04-22T01:03:29.746Z,8.93
2018-04-22T01:05:55.618Z,8.91
2018-04-22T01:08:21.589Z,8.88
2018-04-22T01:10:47.488Z,8.85
2018-04-22T01:13:13.368Z,8.81
2018-04-22T01:15:39.395Z,8.79
2018-04-22T01:18:05.283Z,8.76
2018-04-22T01:20:31.256Z,8.71
2018-04-22T01:22:57.201Z,8.71
2018-04-22T01:25:23.067Z,8.70
2018-04-22T01:27:52.164Z,8.66
2018-04-22T01:30:18.064Z,8.61
2018-04-22T01:32:44.002Z,8.60
2018-04-22T01:35:09.875Z,8.57
2018-04-22T01:37:35.795Z,8.59
2018-04-22T01:40:01.759Z,8.52
2018-04-22T01:42:27.631Z,8.49
2018-04-22T01:44:53.632Z,8.42
2018-04-22T01:47:19.587Z,8.36
2018-04-22T01:49:45.472Z,8.35
2018-04-22T01:52:11.796Z,8.36
2018-04-22T01:54:37.677Z,8.35
2018-04-22T01:57:03.607Z,8.32
2018-04-22T01:59:29.516Z,8.31
2018-04-22T02:01:55.385Z,8.26
2018-04-22T02:04:21.336Z,8.23
2018-04-22T02:06:47.256Z,8.26
2018-04-22T02:09:13.211Z,8.28
2018-04-22T02:11:39.071Z,8.25
2018-04-22T02:14:05.167Z,8.22
2018-04-22T02:16:31.135Z,8.27
2018-04-22T02:18:57.000Z,8.23
2018-04-22T02:21:22.993Z,8.20
2018-04-22T02:23:48.960Z,8.18
2018-04-22T02:26:14.843Z,8.21
2018-04-22T02:28:40.879Z,8.16
2018-04-22T02:31:07.694Z,8.12
2018-04-22T02:33:33.678Z,8.10
2018-04-22T02:35:59.616Z,8.12
2018-04-22T02:38:25.483Z,8.11
2018-04-22T02:40:51.463Z,8.10
2018-04-22T02:43:17.400Z,8.07
2018-04-22T02:45:43.333Z,8.04
2018-04-22T02:48:09.219Z,8.03
2018-04-22T02:50:35.146Z,8.00
2018-04-22T02:53:02.145Z,8.02
2018-04-22T02:55:28.015Z,8.00
2018-04-22T02:57:53.983Z,7.97
2018-04-22T03:00:19.856Z,7.96
2018-04-22T03:02:45.744Z,7.97
2018-04-22T03:05:11.743Z,7.97
2018-04-22T03:07:37.615Z,7.93
2018-04-22T03:10:03.548Z,7.90
2018-04-22T03:12:29.768Z,7.84
2018-04-22T03:14:55.645Z,7.81
2018-04-22T03:17:21.590Z,7.83
2018-04-22T03:19:47.675Z,7.81
2018-04-22T03:22:13.639Z,7.80
2018-04-22T03:24:39.584Z,7.77
2018-04-22T03:27:05.852Z,7.81
2018-04-22T03:29:31.815Z,7.84
2018-04-22T03:31:57.696Z,7.78
2018-04-22T03:34:23.693Z,7.71
2018-04-22T03:36:49.582Z,7.67
2018-04-22T03:39:15.451Z,7.64
2018-04-22T03:41:41.585Z,7.61
2018-04-22T03:44:07.519Z,7.64
2018-04-22T03:46:33.451Z,7.59
2018-04-22T03:48:59.378Z,7.58
2018-04-22T03:51:25.274Z,7.58
2018-04-22T03:53:51.251Z,7.57
2018-04-22T03:56:17.202Z,7.58
2018-04-22T03:58:43.111Z,7.59
2018-04-22T04:01:09.003Z,7.57
2018-04-22T04:03:38.284Z,7.55
2018-04-22T04:06:04.256Z,7.52
2018-04-22T04:08:30.139Z,7.53
2018-04-22T04:10:56.109Z,7.56
2018-04-22T04:13:21.997Z,7.57
2018-04-22T04:15:47.871Z,7.56
2018-04-22T04:21:41.986Z,7.67
2018-04-22T04:27:24.334Z,7.77
2018-04-22T04:29:50.361Z,7.82
2018-04-22T04:32:16.341Z,7.86
2018-04-22T04:34:42.252Z,7.94
2018-04-22T04:37:08.196Z,8.01
2018-04-22T04:39:34.072Z,8.13
2018-04-22T04:42:00.056Z,8.17
2018-04-22T04:44:28.185Z,8.23
2018-04-22T04:46:54.068Z,8.32
2018-04-22T04:49:19.953Z,8.36
2018-04-22T04:51:45.910Z,8.46
2018-04-22T04:54:11.911Z,8.57
2018-04-22T04:56:37.840Z,8.63
2018-04-22T04:59:03.754Z,8.68
2018-04-22T05:01:29.684Z,8.77
2018-04-22T05:03:55.577Z,8.85
2018-04-22T05:06:21.866Z,8.92
2018-04-22T05:08:47.795Z,9.00
2018-04-22T05:11:14.481Z,9.02
2018-04-22T05:13:40.416Z,9.02
2018-04-22T05:16:06.284Z,9.21
2018-04-22T05:18:32.283Z,9.23
2018-04-22T05:20:58.264Z,9.33
2018-04-22T05:23:24.150Z,9.41
2018-04-22T05:25:50.052Z,9.50
2018-04-22T05:28:15.956Z,9.56
2018-04-22T05:30:42.292Z,9.77
2018-04-22T05:33:08.262Z,9.82
2018-04-22T05:35:35.170Z,9.80
2018-04-22T05:38:01.740Z,9.99
2018-04-22T05:40:27.680Z,10.15
2018-04-22T05:42:54.133Z,10.31
2018-04-22T05:45:20.091Z,10.52
2018-04-22T05:47:46.020Z,10.64
2018-04-22T05:50:11.990Z,10.84
2018-04-22T05:52:37.875Z,10.95
2018-04-22T05:55:03.878Z,11.05
2018-04-22T05:57:29.815Z,11.27
2018-04-22T05:59:55.684Z,11.29
2018-04-22T06:02:21.591Z,11.37
2018-04-22T06:04:49.755Z,11.53
2018-04-22T06:07:16.215Z,11.62
2018-04-22T06:09:42.180Z,11.71
2018-04-22T06:12:08.425Z,11.80
2018-04-22T06:14:34.312Z,11.94
2018-04-22T06:17:00.190Z,12.01
2018-04-22T06:19:26.199Z,12.11
2018-04-22T06:21:52.370Z,12.27
2018-04-22T06:24:19.033Z,12.42
2018-04-22T06:26:45.045Z,12.42
2018-04-22T06:29:11.136Z,12.63
2018-04-22T06:31:37.436Z,12.71
2018-04-22T06:34:03.568Z,12.81
2018-04-22T06:36:29.467Z,13.01
2018-04-22T06:38:55.467Z,13.19
2018-04-22T06:41:21.785Z,13.30
2018-04-22T06:43:47.738Z,13.40
2018-04-22T06:46:13.992Z,13.55
2018-04-22T06:48:42.221Z,13.69
2018-04-22T06:51:08.276Z,13.82
2018-04-22T06:53:34.208Z,13.91
2018-04-22T06:56:00.273Z,14.27
2018-04-22T06:58:26.202Z,14.18
2018-04-22T07:00:52.068Z,14.41
2018-04-22T07:03:18.001Z,14.46
2018-04-22T07:05:43.991Z,14.76
2018-04-22T07:08:09.965Z,14.82
2018-04-22T07:10:36.807Z,14.90
2018-04-22T07:13:02.931Z,15.08
2018-04-22T07:15:28.860Z,15.34
2018-04-22T07:17:54.794Z,15.48
2018-04-22T07:20:20.744Z,15.62
2018-04-22T07:22:46.679Z,15.80
2018-04-22T07:25:12.607Z,15.90
2018-04-22T07:27:38.572Z,15.74
2018-04-22T07:30:04.858Z,16.13
2018-04-22T07:32:30.860Z,15.99
2018-04-22T07:34:56.799Z,16.35
2018-04-22T07:37:22.667Z,16.58
2018-04-22T07:39:48.913Z,16.76
2018-04-22T07:42:14.807Z,16.90
2018-04-22T07:44:40.791Z,16.94
2018-04-22T07:47:06.777Z,17.27
2018-04-22T07:49:32.656Z,17.39
2018-04-22T07:51:58.549Z,17.68
2018-04-22T07:54:24.503Z,17.70
2018-04-22T07:56:50.520Z,17.94
2018-04-22T07:59:16.460Z,18.16
2018-04-22T08:01:42.422Z,18.05
2018-04-22T08:04:09.371Z,18.21
2018-04-22T08:06:35.293Z,18.68
2018-04-22T08:09:01.325Z,19.02
2018-04-22T08:11:27.387Z,19.13
2018-04-22T08:13:53.192Z,19.33
2018-04-22T08:16:19.469Z,19.59
2018-04-22T08:18:46.446Z,19.49
2018-04-22T08:21:12.395Z,19.64
2018-04-22T08:23:38.393Z,19.63
2018-04-22T08:26:04.324Z,19.83
2018-04-22T08:28:30.250Z,20.25
2018-04-22T08:30:56.759Z,20.33
2018-04-22T08:33:22.869Z,20.59
2018-04-22T08:35:48.809Z,21.05
2018-04-22T08:38:14.749Z,20.93
2018-04-22T08:40:40.631Z,20.71
2018-04-22T08:43:07.341Z,20.83
2018-04-22T08:45:33.355Z,20.94
2018-04-22T08:47:59.285Z,20.62
2018-04-22T08:50:26.186Z,21.33
2018-04-22T08:52:52.251Z,21.81
2018-04-22T08:55:18.124Z,22.25
2018-04-22T08:57:44.120Z,22.42
2018-04-22T09:00:10.157Z,22.22
2018-04-22T09:02:37.084Z,22.04
2018-04-22T09:05:02.959Z,22.38
2018-04-22T09:07:28.901Z,22.36
2018-04-22T09:09:54.953Z,22.81
2018-04-22T09:12:20.892Z,22.70
2018-04-22T09:14:47.175Z,22.94
2018-04-22T09:17:13.080Z,23.29
2018-04-22T09:19:38.951Z,23.53
2018-04-22T09:22:04.955Z,23.53
2018-04-22T09:24:30.976Z,23.48
2018-04-22T09:26:56.847Z,23.64
2018-04-22T09:29:22.793Z,23.97
2018-04-22T09:31:48.671Z,23.79
2018-04-22T09:34:18.718Z,24.05
2018-04-22T09:36:44.707Z,24.21
2018-04-22T09:39:10.603Z,23.23
2018-04-22T09:41:36.531Z,23.69
2018-04-22T09:44:02.446Z,24.06
2018-04-22T09:46:28.443Z,24.16
2018-04-22T09:48:54.364Z,23.97
2018-04-22T09:51:20.288Z,24.90
2018-04-22T09:53:47.090Z,24.35
2018-04-22T09:56:12.954Z,24.86
2018-04-22T09:58:39.484Z,24.94
2018-04-22T10:01:07.128Z,24.26
2018-04-22T10:03:35.964Z,24.73
2018-04-22T10:06:01.889Z,24.63
2018-04-22T10:08:27.785Z,24.85
2018-04-22T10:10:53.787Z,24.88
2018-04-22T10:13:19.769Z,25.22
2018-04-22T10:15:45.659Z,25.58
2018-04-22T10:18:11.535Z,25.92
2018-04-22T10:20:37.451Z,25.87
2018-04-22T10:23:03.387Z,26.09
2018-04-22T10:25:29.403Z,25.96
2018-04-22T10:27:55.328Z,26.20
2018-04-22T10:30:21.196Z,26.29
2018-04-22T10:32:47.064Z,26.50
2018-04-22T10:35:13.062Z,26.86
2018-04-22T10:37:38.992Z,27.14
2018-04-22T10:40:04.907Z,27.45
2018-04-22T10:42:30.806Z,27.16
2018-04-22T10:44:56.669Z,27.11
2018-04-22T10:47:22.605Z,27.62
2018-04-22T10:49:48.560Z,27.41
2018-04-22T10:52:14.499Z,27.38
2018-04-22T10:54:40.438Z,27.90
2018-04-22T10:57:06.350Z,27.66
2018-04-22T10:59:32.283Z,26.87
2018-04-22T11:01:58.250Z,26.84
2018-04-22T11:04:24.159Z,27.20
2018-04-22T11:06:50.039Z,27.24
2018-04-22T11:09:15.895Z,27.61
2018-04-22T11:11:41.921Z,26.85
2018-04-22T11:14:07.859Z,27.46
2018-04-22T11:16:33.751Z,27.21
2018-04-22T11:18:59.695Z,27.80
2018-04-22T11:21:25.574Z,27.76
2018-04-22T11:23:52.567Z,28.10
2018-04-22T11:26:18.552Z,28.37
2018-04-22T11:28:44.425Z,28.14
2018-04-22T11:31:10.384Z,28.00
2018-04-22T11:33:36.312Z,28.18
2018-04-22T11:36:02.271Z,28.61
2018-04-22T11:38:28.199Z,28.40
2018-04-22T11:40:54.139Z,28.38
2018-04-22T11:43:20.023Z,28.27
2018-04-22T11:45:45.892Z,28.23
2018-04-22T11:48:11.874Z,28.26
2018-04-22T11:50:37.809Z,28.58
2018-04-22T11:53:03.747Z,28.69
2018-04-22T11:55:29.655Z,28.28
2018-04-22T11:57:55.534Z,28.24
2018-04-22T12:00:21.523Z,28.37
2018-04-22T12:02:47.497Z,28.48
2018-04-22T12:05:13.372Z,28.37
2018-04-22T12:07:42.940Z,27.96
2018-04-22T12:10:08.893Z,28.15
2018-04-22T12:12:34.843Z,27.66
2018-04-22T12:15:00.811Z,27.36
2018-04-22T12:17:26.749Z,27.27
2018-04-22T12:19:52.608Z,26.66
2018-04-22T12:22:18.473Z,26.39
2018-04-22T12:24:45.282Z,25.88
2018-04-22T12:27:11.234Z,25.89
2018-04-22T12:29:37.103Z,25.80
2018-04-22T12:32:03.033Z,25.92
2018-04-22T12:34:29.008Z,25.75
2018-04-22T12:36:55.007Z,25.63
2018-04-22T12:39:21.012Z,25.48
2018-04-22T12:41:46.880Z,25.38
2018-04-22T12:44:12.756Z,25.13
2018-04-22T12:46:39.768Z,25.09
2018-04-22T12:49:05.743Z,24.80
2018-04-22T12:51:32.766Z,25.26
2018-04-22T12:53:59.068Z,25.32
2018-04-22T12:56:24.948Z,25.20
2018-04-22T12:58:50.823Z,25.22
2018-04-22T13:01:16.816Z,25.51
2018-04-22T13:03:42.811Z,25.37
2018-04-22T13:06:08.700Z,25.49
2018-04-22T13:08:34.643Z,25.48
2018-04-22T13:11:01.597Z,24.97
2018-04-22T13:13:27.551Z,25.21
2018-04-22T13:15:53.531Z,25.11
2018-04-22T13:18:20.193Z,24.49
2018-04-22T13:20:46.084Z,24.67
2018-04-22T13:23:12.012Z,24.24
2018-04-22T13:25:37.962Z,24.56
2018-04-22T13:28:03.931Z,24.54
2018-04-22T13:30:30.075Z,24.66
2018-04-22T13:32:55.956Z,24.30
2018-04-22T13:35:21.864Z,24.76
2018-04-22T13:37:47.929Z,24.50
2018-04-22T13:40:13.876Z,23.92
2018-04-22T13:42:39.772Z,24.29
2018-04-22T13:45:05.885Z,24.86
2018-04-22T13:47:40.428Z,24.71
2018-04-22T13:50:06.456Z,24.74
2018-04-22T13:52:32.425Z,24.96
2018-04-22T13:54:58.287Z,25.21
2018-04-22T13:57:24.215Z,25.33
2018-04-22T13:59:50.509Z,25.27
2018-04-22T14:02:16.477Z,25.36
2018-04-22T14:04:42.626Z,24.67
2018-04-22T14:07:08.479Z,24.92
2018-04-22T14:09:34.430Z,24.97
2018-04-22T14:12:00.355Z,24.73
2018-04-22T14:14:26.377Z,24.75
2018-04-22T14:16:52.325Z,25.21
2018-04-22T14:19:18.234Z,25.42
2018-04-22T14:21:44.127Z,24.98
2018-04-22T14:24:09.995Z,25.05
2018-04-22T14:26:36.393Z,25.11
2018-04-22T14:29:02.311Z,24.72
2018-04-22T14:31:28.231Z,25.03
2018-04-22T14:33:54.128Z,25.25
2018-04-22T14:36:20.010Z,25.30
2018-04-22T14:38:45.980Z,25.38
2018-04-22T14:41:11.953Z,25.88
2018-04-22T14:43:37.831Z,26.01
2018-04-22T14:46:11.951Z,26.24
2018-04-22T14:48:50.263Z,26.08
2018-04-22T14:51:16.327Z,25.02
2018-04-22T14:53:42.196Z,24.34
2018-04-22T14:56:08.064Z,24.04
2018-04-22T14:58:33.983Z,24.43
2018-04-22T15:00:59.855Z,24.57
2018-04-22T15:03:25.892Z,25.04
2018-04-22T15:05:51.802Z,24.93
2018-04-22T15:08:17.672Z,24.72
2018-04-22T15:10:43.663Z,24.99
2018-04-22T15:13:09.609Z,25.30
2018-04-22T15:15:35.662Z,24.84
2018-04-22T15:18:01.765Z,25.12
2018-04-22T15:20:27.704Z,25.54
2018-04-22T15:22:53.584Z,24.80
2018-04-22T15:25:19.465Z,23.79
2018-04-22T15:27:45.519Z,23.63
2018-04-22T15:30:11.392Z,23.31
2018-04-22T15:32:37.284Z,23.20
2018-04-22T15:35:03.220Z,23.03
2018-04-22T15:37:29.080Z,22.87
2018-04-22T15:39:55.095Z,23.13
2018-04-22T15:42:21.021Z,23.11
2018-04-22T15:44:47.059Z,23.65
2018-04-22T15:47:13.061Z,23.47
2018-04-22T15:49:43.907Z,23.49
2018-04-22T15:52:09.919Z,23.23
2018-04-22T15:54:35.795Z,23.10
2018-04-22T15:57:02.128Z,23.23
2018-04-22T15:59:28.008Z,23.30
2018-04-22T16:01:53.905Z,22.99
2018-04-22T16:04:20.053Z,23.09
2018-04-22T16:06:45.932Z,22.72
2018-04-22T16:09:11.804Z,22.70
2018-04-22T16:11:38.307Z,22.82
2018-04-22T16:14:04.171Z,22.72
2018-04-22T16:16:30.280Z,22.75
2018-04-22T16:18:56.385Z,22.98
2018-04-22T16:21:22.341Z,22.89
2018-04-22T16:23:48.220Z,22.85
2018-04-22T16:26:14.241Z,22.85
2018-04-22T16:28:40.340Z,22.82
2018-04-22T16:31:06.252Z,22.75
2018-04-22T16:33:32.269Z,22.48
2018-04-22T16:35:58.150Z,22.36
2018-04-22T16:38:24.442Z,22.34
2018-04-22T16:40:50.520Z,22.23
2018-04-22T16:43:16.460Z,22.26
2018-04-22T16:45:44.443Z,22.08
2018-04-22T16:48:11.236Z,21.85
2018-04-22T16:50:37.164Z,21.81
2018-04-22T16:53:03.242Z,21.77
2018-04-22T16:55:29.184Z,21.61
2018-04-22T16:57:55.449Z,21.62
2018-04-22T17:00:42.034Z,21.55
2018-04-22T17:03:08.144Z,21.52
2018-04-22T17:05:44.744Z,21.42
2018-04-22T17:08:10.647Z,21.37
2018-04-22T17:10:36.642Z,21.16
2018-04-22T17:13:02.595Z,21.14
2018-04-22T17:18:20.927Z,21.20
2018-04-22T17:20:46.881Z,21.34
2018-04-22T17:23:17.208Z,21.38
2018-04-22T17:25:43.160Z,21.37
2018-04-22T17:28:09.388Z,21.42
2018-04-22T17:30:35.613Z,21.32
2018-04-22T17:33:01.705Z,21.15
2018-04-22T17:35:27.661Z,21.01
2018-04-22T17:37:53.683Z,20.86
2018-04-22T17:40:19.753Z,20.84
2018-04-22T17:42:45.715Z,20.75
2018-04-22T17:45:11.600Z,20.48
2018-04-22T17:47:37.612Z,20.27
2018-04-22T17:50:03.812Z,20.16
